Forseti — V2PV4 — position and weather

sailwx.info

Track history (hours):
 
Tides and Currents Weather Stations Pressure Air Temp Water Temp Dewpoint Dewpoint Depression Visibility Wind Speed Wind Dir Waves Ship Positions

Forseti

Last reported at 2016-Sep-01 01:34 UTC. Time now 2016-Sep-01 01:55 UTC.
Position N 53°36' E 000°01'.

Length 85 m; draft 5.4 m.

Type: Cargo ship. MMSI: 304010297.

Date/timePositionNaut miles runAvg speedWind from/ knotsBaromVisibWave heightAir tempDewpointWater temp
2016-Sep-01 01:34N 53°36' E 000°01'0 0.0
2016-Sep-01 00:33N 53°36' E 000°01'0 0.1
2016-Aug-31 23:34N 53°36' E 000°01'0 0.0
2016-Aug-31 22:33N 53°36' E 000°01'0 0.0
2016-Aug-31 21:33N 53°36' E 000°01'0 0.0
2016-Aug-31 20:33N 53°36' E 000°01'0 0.0
2016-Aug-31 19:33N 53°36' E 000°01'0 0.0
2016-Aug-31 18:33N 53°36' E 000°01'0 0.1
2016-Aug-31 17:33N 53°36' E 000°01'0 0.0
2016-Aug-31 16:33N 53°36' E 000°01'0 0.0
2016-Aug-31 15:33N 53°36' E 000°01'0 0.0
2016-Aug-31 14:33N 53°36' E 000°01'0 0.0
2016-Aug-31 13:33N 53°36' E 000°01'0 0.0
2016-Aug-31 12:33N 53°36' E 000°01'0 0.1
2016-Aug-31 11:30N 53°36' E 000°01'0 0.0
2016-Aug-31 10:33N 53°36' E 000°01'0 0.0
2016-Aug-31 09:33N 53°36' E 000°01'0 0.0
2016-Aug-31 08:33N 53°36' E 000°01'0 0.0
2016-Aug-31 07:33N 53°36' E 000°01'0 0.0
2016-Aug-31 06:33N 53°36' E 000°01'6 5.9
2016-Aug-31 05:33N 53°38' W 000°08'8 8.3
2016-Aug-31 04:33N 53°44' W 000°18'2 1.7
2016-Aug-31 03:33N 53°43' W 000°15'1010.4
2016-Aug-31 02:33N 53°36' W 000°03'10 9.5
2016-Aug-31 01:33N 53°33' E 000°13'8 8.4
2016-Aug-31 00:33N 53°39' E 000°23'11 9.7
2016-Aug-30 23:25N 53°47' E 000°36'9 9.3
2016-Aug-30 22:28N 53°53' E 000°47'320 8.8
2016-Aug-29 10:13N 57°11' E 008°12'5 7.8
2016-Aug-29 09:32N 57°14' E 008°20'9 8.8
2016-Aug-29 08:33N 57°18' E 008°34'78 9.2
2016-Aug-29 00:08N 57°48' E 010°47'6 9.8
2016-Aug-28 23:33N 57°44' E 010°55'1010.4
2016-Aug-28 22:33N 57°37' E 011°09'1111.1
2016-Aug-28 21:33N 57°29' E 011°24'1010.5
2016-Aug-28 20:33N 57°20' E 011°32'1111.0
2016-Aug-28 19:33N 57°10' E 011°39'1110.6
2016-Aug-28 18:33N 56°60' E 011°46'1010.1
2016-Aug-28 17:33N 56°50' E 011°52'10 9.7
2016-Aug-28 16:33N 56°41' E 011°58'9 9.3
2016-Aug-28 15:33N 56°32' E 012°01'2310.0
2016-Aug-28 13:15N 56°13' E 012°25'811.2
2016-Aug-28 12:33N 56°07' E 012°33'1111.1
2016-Aug-28 11:33N 55°57' E 012°43'1110.6
2016-Aug-28 10:33N 55°46' E 012°42'1111.1
2016-Aug-28 09:33N 55°35' E 012°42'1010.1
2016-Aug-28 08:33N 55°25' E 012°42'9 8.9
2016-Aug-28 07:33N 55°17' E 012°47'1110.5
2016-Aug-28 06:33N 55°15' E 013°06'1110.3
2016-Aug-28 05:31N 55°14' E 013°24'1010.3
2016-Aug-28 04:33N 55°14' E 013°42'1010.4
2016-Aug-28 03:33N 55°13' E 013°60'10 9.5
2016-Aug-28 02:33N 55°14' E 014°16'1110.5
2016-Aug-28 01:33N 55°22' E 014°29'1010.5
2016-Aug-28 00:33N 55°28' E 014°43'1010.3
2016-Aug-27 23:33N 55°33' E 014°59'1010.3
2016-Aug-27 22:33N 55°38' E 015°15'1310.3
2016-Aug-27 21:16N 55°45' E 015°35'3210.2
2016-Aug-27 18:11N 56°01' E 016°24'710.3
2016-Aug-27 17:32N 56°05' E 016°34'  
2016-Aug-24 16:13N 57°30' E 021°04'710.2
2016-Aug-24 15:33N 57°26' E 020°53'1010.2
2016-Aug-24 14:34N 57°22' E 020°36'1010.2
2016-Aug-24 13:32N 57°17' E 020°19'18010.0
2016-Aug-23 19:33N 55°42' E 015°43'1010.4
2016-Aug-23 18:33N 55°37' E 015°26'1010.3
2016-Aug-23 17:33N 55°33' E 015°10'1010.3
2016-Aug-23 16:33N 55°28' E 014°54'1010.2
2016-Aug-23 15:33N 55°22' E 014°39'10 9.9
2016-Aug-23 14:33N 55°16' E 014°26'9 9.3
2016-Aug-23 13:33N 55°10' E 014°12'1010.2
2016-Aug-23 12:33N 55°11' E 013°55'10 9.9
2016-Aug-23 11:33N 55°12' E 013°37'11 9.8
2016-Aug-23 10:25N 55°13' E 013°18'9 9.9
2016-Aug-23 09:33N 55°14' E 013°03'10 9.6
2016-Aug-23 08:34N 55°16' E 012°47'7 7.5
2016-Aug-23 07:34N 55°22' E 012°39'10 9.6
2016-Aug-23 06:34N 55°32' E 012°42'10 9.6
2016-Aug-23 05:33N 55°41' E 012°41'10 9.6
2016-Aug-23 04:34N 55°51' E 012°40'10 9.6
2016-Aug-23 03:33N 56°01' E 012°38'8 7.6
2016-Aug-23 02:34N 56°07' E 012°31'10 9.7
2016-Aug-23 01:33N 56°11' E 012°15'58 9.6
2016-Aug-22 19:33N 56°05' E 010°32'10 9.9
2016-Aug-22 18:33N 56°09' E 010°16'1 1.4
2016-Aug-22 17:32N 56°09' E 010°13'0 0.0
2016-Aug-22 16:32N 56°09' E 010°13'0 0.0
2016-Aug-22 15:32N 56°09' E 010°13'0 0.0
2016-Aug-22 14:32N 56°09' E 010°13'0 0.0
2016-Aug-22 13:32N 56°09' E 010°13'0 0.0
2016-Aug-22 12:32N 56°09' E 010°13'0 0.0
2016-Aug-22 11:32N 56°09' E 010°13'0 0.0
2016-Aug-22 10:32N 56°09' E 010°13'0 0.0
2016-Aug-22 09:32N 56°09' E 010°13'0 0.0
2016-Aug-22 08:32N 56°09' E 010°13'0 0.0
2016-Aug-22 07:29N 56°09' E 010°13'0 0.0
2016-Aug-22 06:29N 56°09' E 010°13'0 0.0
2016-Aug-22 05:32N 56°09' E 010°13'0 0.0
2016-Aug-22 04:32N 56°09' E 010°13'0 0.0
2016-Aug-22 03:32N 56°09' E 010°13'0 0.0
2016-Aug-22 02:29N 56°09' E 010°13'  
Track history (hours):
 
Tides and Currents Weather Stations Pressure Air Temp Water Temp Dewpoint Dewpoint Depression Visibility Wind Speed Wind Dir Waves Ship Positions

Forseti

Last reported at 2016-Sep-01 01:34 UTC. Time now 2016-Sep-01 01:55 UTC.
Position N 53°36' E 000°01'.

Length 85 m; draft 5.4 m.

Type: Cargo ship. MMSI: 304010297.

Date/timePositionNaut miles runAvg speedWind from/ knotsBaromVisibWave heightAir tempDewpointWater temp
2016-Sep-01 01:34N 53°36' E 000°01'0 0.0
2016-Sep-01 00:33N 53°36' E 000°01'0 0.1
2016-Aug-31 23:34N 53°36' E 000°01'0 0.0
2016-Aug-31 22:33N 53°36' E 000°01'0 0.0
2016-Aug-31 21:33N 53°36' E 000°01'0 0.0
2016-Aug-31 20:33N 53°36' E 000°01'0 0.0
2016-Aug-31 19:33N 53°36' E 000°01'0 0.0
2016-Aug-31 18:33N 53°36' E 000°01'0 0.1
2016-Aug-31 17:33N 53°36' E 000°01'0 0.0
2016-Aug-31 16:33N 53°36' E 000°01'0 0.0
2016-Aug-31 15:33N 53°36' E 000°01'0 0.0
2016-Aug-31 14:33N 53°36' E 000°01'0 0.0
2016-Aug-31 13:33N 53°36' E 000°01'0 0.0
2016-Aug-31 12:33N 53°36' E 000°01'0 0.1
2016-Aug-31 11:30N 53°36' E 000°01'0 0.0
2016-Aug-31 10:33N 53°36' E 000°01'0 0.0
2016-Aug-31 09:33N 53°36' E 000°01'0 0.0
2016-Aug-31 08:33N 53°36' E 000°01'0 0.0
2016-Aug-31 07:33N 53°36' E 000°01'0 0.0
2016-Aug-31 06:33N 53°36' E 000°01'6 5.9
2016-Aug-31 05:33N 53°38' W 000°08'8 8.3
2016-Aug-31 04:33N 53°44' W 000°18'2 1.7
2016-Aug-31 03:33N 53°43' W 000°15'1010.4
2016-Aug-31 02:33N 53°36' W 000°03'10 9.5
2016-Aug-31 01:33N 53°33' E 000°13'8 8.4
2016-Aug-31 00:33N 53°39' E 000°23'11 9.7
2016-Aug-30 23:25N 53°47' E 000°36'9 9.3
2016-Aug-30 22:28N 53°53' E 000°47'320 8.8
2016-Aug-29 10:13N 57°11' E 008°12'5 7.8
2016-Aug-29 09:32N 57°14' E 008°20'9 8.8
2016-Aug-29 08:33N 57°18' E 008°34'78 9.2
2016-Aug-29 00:08N 57°48' E 010°47'6 9.8
2016-Aug-28 23:33N 57°44' E 010°55'1010.4
2016-Aug-28 22:33N 57°37' E 011°09'1111.1
2016-Aug-28 21:33N 57°29' E 011°24'1010.5
2016-Aug-28 20:33N 57°20' E 011°32'1111.0
2016-Aug-28 19:33N 57°10' E 011°39'1110.6
2016-Aug-28 18:33N 56°60' E 011°46'1010.1
2016-Aug-28 17:33N 56°50' E 011°52'10 9.7
2016-Aug-28 16:33N 56°41' E 011°58'9 9.3
2016-Aug-28 15:33N 56°32' E 012°01'2310.0
2016-Aug-28 13:15N 56°13' E 012°25'811.2
2016-Aug-28 12:33N 56°07' E 012°33'1111.1
2016-Aug-28 11:33N 55°57' E 012°43'1110.6
2016-Aug-28 10:33N 55°46' E 012°42'1111.1
2016-Aug-28 09:33N 55°35' E 012°42'1010.1
2016-Aug-28 08:33N 55°25' E 012°42'9 8.9
2016-Aug-28 07:33N 55°17' E 012°47'1110.5
2016-Aug-28 06:33N 55°15' E 013°06'1110.3
2016-Aug-28 05:31N 55°14' E 013°24'1010.3
2016-Aug-28 04:33N 55°14' E 013°42'1010.4
2016-Aug-28 03:33N 55°13' E 013°60'10 9.5
2016-Aug-28 02:33N 55°14' E 014°16'1110.5
2016-Aug-28 01:33N 55°22' E 014°29'1010.5
2016-Aug-28 00:33N 55°28' E 014°43'1010.3
2016-Aug-27 23:33N 55°33' E 014°59'1010.3
2016-Aug-27 22:33N 55°38' E 015°15'1310.3
2016-Aug-27 21:16N 55°45' E 015°35'3210.2
2016-Aug-27 18:11N 56°01' E 016°24'710.3
2016-Aug-27 17:32N 56°05' E 016°34'  
2016-Aug-24 16:13N 57°30' E 021°04'710.2
2016-Aug-24 15:33N 57°26' E 020°53'1010.2
2016-Aug-24 14:34N 57°22' E 020°36'1010.2
2016-Aug-24 13:32N 57°17' E 020°19'18010.0
2016-Aug-23 19:33N 55°42' E 015°43'1010.4
2016-Aug-23 18:33N 55°37' E 015°26'1010.3
2016-Aug-23 17:33N 55°33' E 015°10'1010.3
2016-Aug-23 16:33N 55°28' E 014°54'1010.2
2016-Aug-23 15:33N 55°22' E 014°39'10 9.9
2016-Aug-23 14:33N 55°16' E 014°26'9 9.3
2016-Aug-23 13:33N 55°10' E 014°12'1010.2
2016-Aug-23 12:33N 55°11' E 013°55'10 9.9
2016-Aug-23 11:33N 55°12' E 013°37'11 9.8
2016-Aug-23 10:25N 55°13' E 013°18'9 9.9
2016-Aug-23 09:33N 55°14' E 013°03'10 9.6
2016-Aug-23 08:34N 55°16' E 012°47'7 7.5
2016-Aug-23 07:34N 55°22' E 012°39'10 9.6
2016-Aug-23 06:34N 55°32' E 012°42'10 9.6
2016-Aug-23 05:33N 55°41' E 012°41'10 9.6
2016-Aug-23 04:34N 55°51' E 012°40'10 9.6
2016-Aug-23 03:33N 56°01' E 012°38'8 7.6
2016-Aug-23 02:34N 56°07' E 012°31'10 9.7
2016-Aug-23 01:33N 56°11' E 012°15'58 9.6
2016-Aug-22 19:33N 56°05' E 010°32'10 9.9
2016-Aug-22 18:33N 56°09' E 010°16'1 1.4
2016-Aug-22 17:32N 56°09' E 010°13'0 0.0
2016-Aug-22 16:32N 56°09' E 010°13'0 0.0
2016-Aug-22 15:32N 56°09' E 010°13'0 0.0
2016-Aug-22 14:32N 56°09' E 010°13'0 0.0
2016-Aug-22 13:32N 56°09' E 010°13'0 0.0
2016-Aug-22 12:32N 56°09' E 010°13'0 0.0
2016-Aug-22 11:32N 56°09' E 010°13'0 0.0
2016-Aug-22 10:32N 56°09' E 010°13'0 0.0
2016-Aug-22 09:32N 56°09' E 010°13'0 0.0
2016-Aug-22 08:32N 56°09' E 010°13'0 0.0
2016-Aug-22 07:29N 56°09' E 010°13'0 0.0
2016-Aug-22 06:29N 56°09' E 010°13'0 0.0
2016-Aug-22 05:32N 56°09' E 010°13'0 0.0
2016-Aug-22 04:32N 56°09' E 010°13'0 0.0
2016-Aug-22 03:32N 56°09' E 010°13'0 0.0
2016-Aug-22 02:29N 56°09' E 010°13'  

Dump ship's entire track history